createdAt,value
2019-04-04T00:00:33.308Z,11.33
2019-04-04T00:02:59.345Z,11.29
2019-04-04T00:05:26.206Z,11.32
2019-04-04T00:07:52.329Z,11.47
2019-04-04T00:10:18.371Z,11.43
2019-04-04T00:12:44.410Z,11.42
2019-04-04T00:15:12.955Z,11.32
2019-04-04T00:17:40.080Z,11.28
2019-04-04T00:20:06.276Z,11.38
2019-04-04T00:22:35.176Z,11.32
2019-04-04T00:25:00.232Z,11.29
2019-04-04T00:27:26.323Z,11.25
2019-04-04T00:29:52.336Z,11.30
2019-04-04T00:32:20.782Z,11.25
2019-04-04T00:34:46.305Z,11.27
2019-04-04T00:37:12.395Z,11.22
2019-04-04T00:39:39.922Z,11.10
2019-04-04T00:42:06.394Z,11.14
2019-04-04T00:44:32.522Z,11.04
2019-04-04T00:47:01.534Z,10.97
2019-04-04T00:49:26.512Z,10.93
2019-04-04T00:51:52.774Z,11.04
2019-04-04T00:54:18.810Z,11.02
2019-04-04T00:56:44.844Z,11.00
2019-04-04T00:59:10.868Z,11.02
2019-04-04T01:01:36.942Z,11.03
2019-04-04T01:04:03.103Z,10.99
2019-04-04T01:06:29.124Z,11.08
2019-04-04T01:08:55.085Z,10.90
2019-04-04T01:11:21.140Z,10.82
2019-04-04T01:13:47.180Z,10.94
2019-04-04T01:16:13.291Z,10.86
2019-04-04T01:18:39.319Z,10.87
2019-04-04T01:21:05.340Z,10.81
2019-04-04T01:23:31.319Z,10.78
2019-04-04T01:25:57.360Z,10.75
2019-04-04T01:28:23.504Z,10.79
2019-04-04T01:30:49.527Z,10.72
2019-04-04T01:33:15.528Z,10.71
2019-04-04T01:35:41.520Z,10.68
2019-04-04T01:38:07.528Z,10.66
2019-04-04T01:40:36.527Z,10.70
2019-04-04T01:43:02.869Z,10.62
2019-04-04T01:45:28.995Z,10.46
2019-04-04T01:47:55.068Z,10.51
2019-04-04T01:50:22.544Z,10.51
2019-04-04T01:52:48.973Z,10.36
2019-04-04T01:55:15.212Z,10.49
2019-04-04T01:57:41.335Z,10.37
2019-04-04T02:00:09.122Z,10.48
2019-04-04T02:02:35.151Z,10.33
2019-04-04T02:05:01.238Z,10.39
2019-04-04T02:07:27.863Z,10.35
2019-04-04T02:09:55.184Z,10.24
2019-04-04T02:12:21.162Z,10.19
2019-04-04T02:14:47.193Z,10.21
2019-04-04T02:17:13.215Z,10.10
2019-04-04T02:19:39.271Z,10.05
2019-04-04T02:22:05.436Z,10.06
2019-04-04T02:24:31.793Z,10.08
2019-04-04T02:26:58.469Z,10.03
2019-04-04T02:29:24.506Z,10.01
2019-04-04T02:31:53.780Z,9.98
2019-04-04T02:34:20.453Z,9.96
2019-04-04T02:36:48.737Z,10.04
2019-04-04T02:39:15.425Z,10.08
2019-04-04T02:41:41.503Z,9.99
2019-04-04T02:44:07.535Z,9.93
2019-04-04T02:46:33.607Z,9.96
2019-04-04T02:48:59.607Z,9.99
2019-04-04T02:51:25.583Z,9.82
2019-04-04T02:53:53.014Z,9.79
2019-04-04T02:56:19.169Z,9.74
2019-04-04T02:58:46.354Z,9.72
2019-04-04T03:01:13.146Z,9.70
2019-04-04T03:03:42.103Z,9.68
2019-04-04T03:06:07.225Z,9.63
2019-04-04T03:08:36.676Z,9.59
2019-04-04T03:11:01.149Z,9.71
2019-04-04T03:13:31.166Z,9.66
2019-04-04T03:15:55.093Z,9.65
2019-04-04T03:18:21.149Z,9.63
2019-04-04T03:20:50.404Z,9.70
2019-04-04T03:23:15.080Z,9.60
2019-04-04T03:25:41.136Z,9.50
2019-04-04T03:28:07.149Z,9.63
2019-04-04T03:30:33.273Z,9.59
2019-04-04T03:32:59.270Z,9.46
2019-04-04T03:35:27.974Z,9.42
2019-04-04T03:37:53.269Z,9.54
2019-04-04T03:40:19.296Z,9.44
2019-04-04T03:42:45.434Z,9.53
2019-04-04T03:45:11.541Z,9.41
2019-04-04T03:47:37.515Z,9.41
2019-04-04T03:50:05.047Z,9.35
2019-04-04T03:52:31.053Z,9.33
2019-04-04T03:54:57.175Z,9.29
2019-04-04T03:57:23.189Z,9.37
2019-04-04T03:59:49.202Z,9.30
2019-04-04T04:02:17.847Z,9.38
2019-04-04T04:04:43.227Z,9.32
2019-04-04T04:07:09.213Z,9.39
2019-04-04T04:09:35.252Z,9.33
2019-04-04T04:12:01.240Z,9.27
2019-04-04T04:14:27.324Z,9.24
2019-04-04T04:16:53.408Z,9.27
2019-04-04T04:19:19.407Z,9.33
2019-04-04T04:21:45.466Z,9.36
2019-04-04T04:24:11.550Z,9.25
2019-04-04T04:26:41.031Z,9.26
2019-04-04T04:29:05.459Z,9.27
2019-04-04T04:31:31.434Z,9.18
2019-04-04T04:34:00.549Z,9.11
2019-04-04T04:36:25.377Z,9.10
2019-04-04T04:38:51.401Z,9.11
2019-04-04T04:41:20.308Z,9.02
2019-04-04T04:43:45.331Z,9.09
2019-04-04T04:46:11.362Z,9.00
2019-04-04T04:48:37.363Z,8.98
2019-04-04T04:51:03.368Z,8.95
2019-04-04T04:53:29.473Z,9.02
2019-04-04T04:55:59.488Z,9.01
2019-04-04T04:58:23.467Z,8.94
2019-04-04T05:00:50.092Z,9.00
2019-04-04T05:03:16.260Z,8.97
2019-04-04T05:05:42.239Z,8.98
2019-04-04T05:08:10.209Z,8.94
2019-04-04T05:10:36.184Z,8.96
2019-04-04T05:13:02.179Z,8.89
2019-04-04T05:15:28.165Z,8.95
2019-04-04T05:17:54.281Z,9.15
2019-04-04T05:20:20.322Z,9.14
2019-04-04T05:22:46.451Z,9.11
2019-04-04T05:25:12.745Z,8.97
2019-04-04T05:27:38.731Z,9.01
2019-04-04T05:30:08.131Z,9.05
2019-04-04T05:32:33.349Z,9.04
2019-04-04T05:35:01.337Z,9.15
2019-04-04T05:37:27.637Z,9.20
2019-04-04T05:39:55.392Z,9.27
2019-04-04T05:42:21.522Z,9.29
2019-04-04T05:44:47.635Z,9.42
2019-04-04T05:47:13.683Z,9.35
2019-04-04T05:49:39.648Z,9.35
2019-04-04T05:52:08.737Z,9.36
2019-04-04T05:54:33.736Z,9.45
2019-04-04T05:56:59.828Z,9.55
2019-04-04T05:59:25.899Z,9.63
2019-04-04T06:01:51.877Z,9.63
2019-04-04T06:04:19.662Z,9.80
2019-04-04T06:06:45.848Z,9.93
2019-04-04T06:09:13.838Z,10.03
2019-04-04T06:11:39.813Z,10.21
2019-04-04T06:14:05.805Z,10.31
2019-04-04T06:16:33.023Z,10.46
2019-04-04T06:18:59.709Z,10.60
2019-04-04T06:21:25.824Z,10.83
2019-04-04T06:23:51.854Z,10.94
2019-04-04T06:26:17.847Z,11.16
2019-04-04T06:28:44.407Z,11.24
2019-04-04T06:31:11.056Z,11.22
2019-04-04T06:33:37.048Z,11.10
2019-04-04T06:36:03.094Z,11.17
2019-04-04T06:38:29.073Z,11.52
2019-04-04T06:40:55.109Z,11.62
2019-04-04T06:43:21.164Z,11.66
2019-04-04T06:45:47.562Z,11.77
2019-04-04T06:48:13.754Z,11.42
2019-04-04T06:50:42.859Z,11.44
2019-04-04T06:53:07.617Z,11.63
2019-04-04T06:55:37.373Z,11.84
2019-04-04T06:58:01.552Z,11.84
2019-04-04T07:00:27.582Z,12.13
2019-04-04T07:02:56.109Z,12.17
2019-04-04T07:05:21.540Z,12.44
2019-04-04T07:07:47.525Z,12.70
2019-04-04T07:10:13.646Z,12.93
2019-04-04T07:12:39.611Z,13.01
2019-04-04T07:15:07.208Z,13.17
2019-04-04T07:17:33.257Z,13.22
2019-04-04T07:19:59.243Z,13.41
2019-04-04T07:22:25.558Z,13.53
2019-04-04T07:24:51.637Z,13.77
2019-04-04T07:27:17.609Z,13.82
2019-04-04T07:29:43.752Z,13.96
2019-04-04T07:32:10.221Z,13.97
2019-04-04T07:34:36.331Z,14.20
2019-04-04T07:37:02.459Z,14.42
2019-04-04T07:39:31.945Z,14.55
2019-04-04T07:41:56.468Z,14.85
2019-04-04T07:44:23.391Z,15.14
2019-04-04T07:46:50.195Z,15.39
2019-04-04T07:49:16.215Z,15.51
2019-04-04T07:51:42.451Z,15.71
2019-04-04T07:54:08.459Z,15.85
2019-04-04T07:56:34.639Z,16.20
2019-04-04T07:59:01.373Z,15.86
2019-04-04T08:01:27.636Z,15.88
2019-04-04T08:03:53.714Z,15.93
2019-04-04T08:06:19.938Z,15.76
2019-04-04T08:08:46.523Z,15.97
2019-04-04T08:11:13.452Z,15.93
2019-04-04T08:13:39.671Z,16.13
2019-04-04T08:16:06.553Z,16.26
2019-04-04T08:18:32.577Z,16.24
2019-04-04T08:20:58.563Z,16.27
2019-04-04T08:23:24.611Z,16.50
2019-04-04T08:25:50.633Z,16.89
2019-04-04T08:28:16.619Z,17.22
2019-04-04T08:30:42.847Z,17.60
2019-04-04T08:33:09.381Z,17.45
2019-04-04T08:35:35.463Z,17.56
2019-04-04T08:38:01.545Z,17.87
2019-04-04T08:40:27.548Z,17.75
2019-04-04T08:42:53.812Z,18.18
2019-04-04T08:45:19.927Z,18.12
2019-04-04T08:47:46.110Z,17.97
2019-04-04T08:50:12.205Z,18.48
2019-04-04T08:52:38.294Z,18.44
2019-04-04T08:55:05.478Z,18.24
2019-04-04T08:57:31.641Z,18.49
2019-04-04T08:59:58.019Z,18.62
2019-04-04T09:02:24.028Z,18.86
2019-04-04T09:04:50.088Z,18.51
2019-04-04T09:07:16.148Z,18.44
2019-04-04T09:09:42.271Z,18.29
2019-04-04T09:12:08.344Z,18.18
2019-04-04T09:14:34.377Z,18.41
2019-04-04T09:17:00.737Z,18.68
2019-04-04T09:19:26.832Z,18.80
2019-04-04T09:21:53.023Z,19.29
2019-04-04T09:24:19.043Z,19.81
2019-04-04T09:26:45.203Z,20.17
2019-04-04T09:29:11.336Z,20.44
2019-04-04T09:31:37.387Z,20.78
2019-04-04T09:34:03.385Z,21.23
2019-04-04T09:36:29.570Z,21.35
2019-04-04T09:38:55.588Z,21.47
2019-04-04T09:41:21.621Z,21.18
2019-04-04T09:43:47.708Z,20.90
2019-04-04T09:46:13.716Z,20.66
2019-04-04T09:48:39.705Z,20.64
2019-04-04T09:51:05.804Z,20.81
2019-04-04T09:53:31.797Z,20.49
2019-04-04T09:55:57.837Z,20.48
2019-04-04T09:58:23.863Z,20.69
2019-04-04T10:00:50.058Z,20.95
2019-04-04T10:03:16.175Z,21.25
2019-04-04T10:05:42.167Z,21.21
2019-04-04T10:08:09.111Z,21.85
2019-04-04T10:10:35.149Z,22.13
2019-04-04T10:13:01.149Z,21.88
2019-04-04T10:15:27.155Z,21.61
2019-04-04T10:17:53.181Z,20.94
2019-04-04T10:20:19.201Z,20.83
2019-04-04T10:22:45.248Z,20.94
2019-04-04T10:25:11.323Z,21.01
2019-04-04T10:27:37.348Z,21.23
2019-04-04T10:30:05.641Z,21.21
2019-04-04T10:32:31.732Z,21.51
2019-04-04T10:34:57.727Z,21.72
2019-04-04T10:37:23.727Z,21.84
2019-04-04T10:39:50.034Z,22.31
2019-04-04T10:42:16.179Z,22.63
2019-04-04T10:44:42.412Z,23.16
2019-04-04T10:47:08.450Z,23.40
2019-04-04T10:49:34.588Z,23.57
2019-04-04T10:52:00.891Z,23.86
2019-04-04T10:54:27.074Z,23.80
2019-04-04T10:56:53.238Z,23.69
2019-04-04T10:59:19.312Z,23.50
2019-04-04T11:01:45.353Z,23.39
2019-04-04T11:04:11.338Z,22.66
2019-04-04T11:06:37.344Z,22.19
2019-04-04T11:09:05.724Z,21.50
2019-04-04T11:11:31.750Z,21.75
2019-04-04T11:13:57.822Z,22.25
2019-04-04T11:16:29.978Z,21.97
2019-04-04T11:18:51.739Z,22.10
2019-04-04T11:21:17.746Z,22.24
2019-04-04T11:23:43.979Z,22.73
2019-04-04T11:26:09.979Z,22.84
2019-04-04T11:28:35.965Z,22.72
2019-04-04T11:31:02.226Z,22.90
2019-04-04T11:33:28.272Z,23.47
2019-04-04T11:35:54.387Z,23.74
2019-04-04T11:38:20.400Z,23.09
2019-04-04T11:40:46.637Z,22.97
2019-04-04T11:43:12.651Z,23.14
2019-04-04T11:45:38.670Z,23.50
2019-04-04T11:48:04.964Z,23.53
2019-04-04T11:50:31.037Z,23.58
2019-04-04T11:52:57.414Z,24.03
2019-04-04T11:55:23.504Z,24.04
2019-04-04T11:57:49.516Z,24.57
2019-04-04T12:00:17.689Z,24.39
2019-04-04T12:02:43.721Z,24.48
2019-04-04T12:05:10.177Z,24.64
2019-04-04T12:07:38.372Z,24.51
2019-04-04T12:10:07.607Z,24.29
2019-04-04T12:12:33.529Z,24.04
2019-04-04T12:14:59.578Z,23.61
2019-04-04T12:17:25.584Z,22.82
2019-04-04T12:19:51.578Z,22.87
2019-04-04T12:22:17.625Z,23.16
2019-04-04T12:24:43.709Z,23.99
2019-04-04T12:27:09.787Z,24.28
2019-04-04T12:29:35.908Z,24.10
2019-04-04T12:32:02.342Z,23.81
2019-04-04T12:34:28.348Z,23.29
2019-04-04T12:36:54.385Z,23.13
2019-04-04T12:39:20.619Z,22.49
2019-04-04T12:41:46.966Z,22.39
2019-04-04T12:44:12.976Z,22.50
2019-04-04T12:46:39.088Z,22.40
2019-04-04T12:49:05.121Z,22.93
2019-04-04T12:51:31.198Z,23.40
2019-04-04T12:53:57.575Z,22.82
2019-04-04T12:56:23.708Z,22.72
2019-04-04T12:58:49.732Z,22.81
2019-04-04T13:01:16.036Z,22.13
2019-04-04T13:03:42.169Z,22.86
2019-04-04T13:06:08.212Z,22.73
2019-04-04T13:08:34.220Z,23.03
2019-04-04T13:11:00.232Z,23.20
2019-04-04T13:13:26.547Z,23.51
2019-04-04T13:15:52.648Z,23.58
2019-04-04T13:18:18.677Z,22.67
2019-04-04T13:20:44.720Z,22.56
2019-04-04T13:23:10.773Z,22.48
2019-04-04T13:25:36.782Z,22.91
2019-04-04T13:28:02.834Z,23.24
2019-04-04T13:30:28.895Z,23.16
2019-04-04T13:32:54.916Z,23.46
2019-04-04T13:35:21.035Z,23.56
2019-04-04T13:37:47.044Z,23.94
2019-04-04T13:40:13.387Z,23.98
2019-04-04T13:42:39.524Z,23.58
2019-04-04T13:45:06.336Z,23.54
2019-04-04T13:47:32.345Z,23.66
2019-04-04T13:49:58.539Z,23.44
2019-04-04T13:52:26.459Z,23.00
2019-04-04T13:54:55.615Z,22.58
2019-04-04T13:57:20.727Z,22.50
2019-04-04T13:59:46.836Z,22.13
2019-04-04T14:02:12.908Z,22.03
2019-04-04T14:04:39.234Z,21.94
2019-04-04T14:07:05.372Z,21.39
2019-04-04T14:09:32.061Z,21.08
2019-04-04T14:11:58.161Z,21.05
2019-04-04T14:14:24.271Z,21.37
2019-04-04T14:16:50.643Z,21.27
2019-04-04T14:19:16.680Z,21.54
2019-04-04T14:21:42.801Z,21.68
2019-04-04T14:24:13.828Z,21.74
2019-04-04T14:26:36.935Z,21.80
2019-04-04T14:29:04.518Z,21.76
2019-04-04T14:31:30.928Z,21.63
2019-04-04T14:33:56.991Z,21.68
2019-04-04T14:36:23.309Z,22.10
2019-04-04T14:38:49.382Z,22.03
2019-04-04T14:41:15.436Z,22.12
2019-04-04T14:43:41.604Z,22.10
2019-04-04T14:46:07.612Z,22.10
2019-04-04T14:48:33.633Z,21.76
2019-04-04T14:50:59.718Z,21.91
2019-04-04T14:53:26.222Z,21.96
2019-04-04T14:55:52.897Z,21.66
2019-04-04T14:58:18.931Z,21.46
2019-04-04T15:00:44.980Z,21.10
2019-04-04T15:03:11.072Z,21.10
2019-04-04T15:05:37.063Z,21.01
2019-04-04T15:08:03.121Z,21.09
2019-04-04T15:10:29.295Z,20.94
2019-04-04T15:12:55.288Z,20.96
2019-04-04T15:15:21.287Z,20.83
2019-04-04T15:17:47.323Z,20.87
2019-04-04T15:20:13.794Z,20.70
2019-04-04T15:22:39.844Z,20.71
2019-04-04T15:25:05.892Z,20.76
2019-04-04T15:27:31.875Z,20.56
2019-04-04T15:29:58.170Z,20.35
2019-04-04T15:32:24.490Z,20.25
2019-04-04T15:34:50.654Z,20.19
2019-04-04T15:37:16.751Z,20.07
2019-04-04T15:39:42.744Z,20.11
2019-04-04T15:42:08.731Z,20.11
2019-04-04T15:44:34.749Z,20.17
2019-04-04T15:47:01.040Z,20.17
2019-04-04T15:49:27.162Z,20.21
2019-04-04T15:51:53.283Z,20.12
2019-04-04T15:54:19.315Z,20.18
2019-04-04T15:56:45.676Z,20.15
2019-04-04T15:59:11.925Z,20.21
2019-04-04T16:01:38.097Z,20.21
2019-04-04T16:04:04.480Z,20.26
2019-04-04T16:06:30.468Z,20.42
2019-04-04T16:08:56.699Z,20.16
2019-04-04T16:11:22.698Z,20.13
2019-04-04T16:13:48.764Z,19.97
2019-04-04T16:16:15.831Z,19.89
2019-04-04T16:18:42.000Z,19.75
2019-04-04T16:21:08.078Z,19.63
2019-04-04T16:23:34.139Z,19.58
2019-04-04T16:26:00.134Z,19.43
2019-04-04T16:28:26.534Z,19.33
2019-04-04T16:30:52.592Z,19.32
2019-04-04T16:33:18.990Z,19.28
2019-04-04T16:35:45.104Z,19.20
2019-04-04T16:38:11.103Z,19.18
2019-04-04T16:40:37.228Z,19.11
2019-04-04T16:43:03.345Z,19.03
2019-04-04T16:45:29.700Z,18.87
2019-04-04T16:47:56.240Z,18.80
2019-04-04T16:50:22.651Z,18.85
2019-04-04T16:52:49.080Z,18.88
2019-04-04T16:55:15.272Z,18.88
2019-04-04T16:57:43.255Z,18.85
2019-04-04T17:00:11.344Z,18.92
2019-04-04T17:02:37.631Z,18.88
2019-04-04T17:05:04.066Z,18.91
2019-04-04T17:07:30.090Z,18.89
2019-04-04T17:09:56.108Z,18.99
2019-04-04T17:12:22.200Z,19.06
2019-04-04T17:14:48.406Z,19.14
2019-04-04T17:17:14.527Z,18.98
2019-04-04T17:19:40.890Z,19.15
2019-04-04T17:22:06.981Z,18.84
2019-04-04T17:24:32.985Z,18.81
2019-04-04T17:26:59.723Z,18.76
2019-04-04T17:29:25.820Z,18.63
2019-04-04T17:31:52.565Z,18.49
2019-04-04T17:34:19.178Z,18.46
2019-04-04T17:36:47.965Z,18.48
2019-04-04T17:39:14.162Z,18.35
2019-04-04T17:41:40.374Z,18.37
2019-04-04T17:44:06.739Z,18.18
2019-04-04T17:46:33.286Z,18.06
2019-04-04T17:48:59.740Z,17.96
2019-04-04T17:51:26.103Z,17.79
2019-04-04T17:53:53.527Z,17.87
2019-04-04T17:56:20.199Z,17.80
2019-04-04T17:58:46.365Z,17.79
2019-04-04T18:01:13.028Z,17.67
2019-04-04T18:03:39.075Z,17.50
2019-04-04T18:06:05.106Z,17.64
2019-04-04T18:08:31.112Z,17.45
2019-04-04T18:10:57.479Z,17.47
2019-04-04T18:13:23.474Z,17.44
2019-04-04T18:15:49.477Z,17.31
2019-04-04T18:18:15.644Z,17.24
2019-04-04T18:20:41.790Z,17.25
2019-04-04T18:23:07.819Z,17.23
2019-04-04T18:25:34.849Z,17.22
2019-04-04T18:28:00.989Z,17.08
2019-04-04T18:30:27.107Z,17.05
2019-04-04T18:32:53.493Z,16.94
2019-04-04T18:35:19.994Z,16.96
2019-04-04T18:37:46.214Z,16.92
2019-04-04T18:45:32.982Z,16.64
2019-04-04T18:47:59.096Z,16.52
2019-04-04T18:50:25.145Z,16.54
2019-04-04T18:52:51.151Z,16.46
2019-04-04T18:55:20.138Z,16.49
2019-04-04T18:57:45.220Z,16.57
2019-04-04T19:00:11.492Z,16.51
2019-04-04T19:02:37.690Z,16.39
2019-04-04T19:05:06.016Z,16.35
2019-04-04T19:07:39.314Z,16.41
2019-04-04T19:09:59.992Z,16.41
2019-04-04T19:12:26.108Z,16.37
2019-04-04T19:14:52.344Z,16.22
2019-04-04T19:17:18.335Z,16.13
2019-04-04T19:19:44.437Z,16.05
2019-04-04T19:22:10.646Z,16.00
2019-04-04T19:24:36.748Z,15.91
2019-04-04T19:27:03.218Z,15.88
2019-04-04T19:29:31.586Z,15.85
2019-04-04T19:31:57.816Z,15.80
2019-04-04T19:34:24.146Z,15.74
2019-04-04T19:36:50.175Z,15.74
2019-04-04T19:39:17.012Z,15.66
2019-04-04T19:41:43.081Z,15.63
2019-04-04T19:44:09.250Z,15.61
2019-04-04T19:46:37.326Z,15.46
2019-04-04T19:49:03.745Z,15.47
2019-04-04T19:51:29.853Z,15.37
2019-04-04T19:53:55.892Z,15.37
2019-04-04T19:56:22.033Z,15.38
2019-04-04T19:58:48.150Z,15.17
2019-04-04T20:01:14.416Z,15.15
2019-04-04T20:03:40.506Z,15.09
2019-04-04T20:06:06.563Z,15.04
2019-04-04T20:08:32.958Z,14.93
2019-04-04T20:10:59.245Z,15.00
2019-04-04T20:13:31.242Z,14.95
2019-04-04T20:16:41.608Z,14.85
2019-04-04T20:19:07.667Z,14.79
2019-04-04T20:21:33.845Z,14.81
2019-04-04T20:24:00.001Z,14.68
2019-04-04T20:26:26.030Z,14.58
2019-04-04T20:28:52.142Z,14.60
2019-04-04T20:31:18.163Z,14.66
2019-04-04T20:33:44.494Z,14.66
2019-04-04T20:36:10.587Z,14.51
2019-04-04T20:38:37.080Z,14.39
2019-04-04T20:41:03.313Z,14.44
2019-04-04T20:43:29.505Z,14.40
2019-04-04T20:45:56.821Z,14.15
2019-04-04T20:48:22.927Z,14.33
2019-04-04T20:50:50.570Z,14.29
2019-04-04T20:53:16.713Z,14.36
2019-04-04T20:55:42.830Z,14.30
2019-04-04T20:58:09.026Z,14.22
2019-04-04T21:00:35.064Z,14.15
2019-04-04T21:03:03.371Z,14.10
2019-04-04T21:05:29.389Z,14.13
2019-04-04T21:07:55.597Z,14.12
2019-04-04T21:10:21.707Z,14.14
2019-04-04T21:12:47.908Z,14.06
2019-04-04T21:15:14.064Z,14.05
2019-04-04T21:17:40.319Z,13.83
2019-04-04T21:20:06.838Z,13.88
2019-04-04T21:22:32.984Z,13.76
2019-04-04T21:24:59.031Z,13.78
2019-04-04T21:27:25.081Z,13.77
2019-04-04T21:29:51.351Z,13.73
2019-04-04T21:32:19.474Z,13.77
2019-04-04T21:34:45.759Z,13.70
2019-04-04T21:37:11.838Z,13.54
2019-04-04T21:39:37.916Z,13.58
2019-04-04T21:42:03.966Z,13.54
2019-04-04T21:44:30.784Z,13.68
2019-04-04T21:46:57.157Z,13.67
2019-04-04T21:49:23.198Z,13.63
2019-04-04T21:51:49.284Z,13.69
2019-04-04T21:54:15.403Z,13.56
2019-04-04T21:56:41.681Z,13.50
2019-04-04T21:59:07.787Z,13.54
2019-04-04T22:01:33.904Z,13.49
2019-04-04T22:03:59.955Z,13.45
2019-04-04T22:06:25.960Z,13.43
2019-04-04T22:08:52.023Z,13.69
2019-04-04T22:11:18.224Z,13.92
2019-04-04T22:13:44.250Z,14.04
2019-04-04T22:16:10.610Z,13.51
2019-04-04T22:18:36.643Z,13.58
2019-04-04T22:21:02.757Z,13.59
2019-04-04T22:23:28.834Z,13.47
2019-04-04T22:25:55.017Z,13.38
2019-04-04T22:28:21.078Z,13.39
2019-04-04T22:30:47.304Z,13.50
2019-04-04T22:33:13.356Z,14.09
2019-04-04T22:35:39.568Z,14.45
2019-04-04T22:38:05.607Z,14.48
2019-04-04T22:40:31.615Z,14.43
2019-04-04T22:42:57.743Z,14.30
2019-04-04T22:45:23.762Z,14.14
2019-04-04T22:47:49.817Z,13.56
2019-04-04T22:50:15.931Z,13.53
2019-04-04T22:52:42.304Z,13.50
2019-04-04T22:55:08.624Z,13.48
2019-04-04T22:57:34.749Z,13.46
2019-04-04T23:00:00.995Z,13.30
2019-04-04T23:02:27.105Z,13.37
2019-04-04T23:04:53.178Z,13.22
2019-04-04T23:07:19.227Z,13.12
2019-04-04T23:09:45.338Z,13.02
2019-04-04T23:12:11.455Z,12.92
2019-04-04T23:14:47.516Z,12.81
2019-04-04T23:17:05.523Z,12.81
2019-04-04T23:19:31.520Z,12.70
2019-04-04T23:21:57.553Z,12.65
2019-04-04T23:24:23.546Z,12.84
2019-04-04T23:26:49.599Z,12.95
2019-04-04T23:29:15.612Z,12.94
2019-04-04T23:31:41.798Z,12.93
2019-04-04T23:34:08.264Z,12.94
2019-04-04T23:36:35.519Z,12.97
2019-04-04T23:39:01.788Z,12.93
2019-04-04T23:41:27.792Z,13.03
2019-04-04T23:43:53.844Z,13.02
2019-04-04T23:46:19.934Z,13.05
2019-04-04T23:48:46.021Z,12.96
2019-04-04T23:51:12.049Z,12.84
2019-04-04T23:53:38.162Z,12.81
2019-04-04T23:56:04.306Z,12.78
2019-04-04T23:58:30.400Z,12.75
